Time;durP1;ratioP1;P1;durP2;ratioP2;P2;SDS_P1;SDS_P2;PMS_P1;PMS_P2;Temp;Humidity;BMP_temperature;BMP_pressure;BME280_temperature;BME280_humidity;BME280_pressure;Samples;Min_cycle;Max_cycle;Signal;HPM_P1;HPM_P2
2022/10/06 00:01:35;;;;;;;16.10;8.00;;;;;;;;;;4990154;28;20378;-68
2022/10/06 00:04:01;;;;;;;14.40;7.57;;;;;;;;;;4990011;28;20448;-68
2022/10/06 00:06:26;;;;;;;19.17;6.85;;;;;;;;;;4990741;28;20305;-68
2022/10/06 00:08:51;;;;;;;12.27;7.22;;;;;;;;;;4972178;28;20483;-68
2022/10/06 00:11:17;;;;;;;13.88;7.72;;;;;;;;;;4991799;28;20305;-68
2022/10/06 00:13:42;;;;;;;14.55;6.93;;;;;;;;;;4996526;28;20456;-68
2022/10/06 00:16:09;;;;;;;14.70;7.07;;;;;;;;;;5009391;28;20418;-67
2022/10/06 00:18:35;;;;;;;11.43;6.88;;;;;;;;;;4991706;28;20501;-68
2022/10/06 00:21:00;;;;;;;10.95;6.13;;;;;;;;;;4991986;28;20545;-68
2022/10/06 00:23:27;;;;;;;13.20;7.25;;;;;;;;;;5009493;28;20477;-68
2022/10/06 00:25:53;;;;;;;17.13;7.80;;;;;;;;;;5009595;28;20443;-68
2022/10/06 00:28:19;;;;;;;13.90;7.63;;;;;;;;;;4991368;28;20549;-68
2022/10/06 00:30:45;;;;;;;13.20;7.10;;;;;;;;;;4991577;28;20435;-68
2022/10/06 00:33:14;;;;;;;11.77;6.72;;;;;;;;;;4991980;28;20378;-68
2022/10/06 00:35:40;;;;;;;17.35;7.00;;;;;;;;;;4992501;28;20028;-68
2022/10/06 00:38:05;;;;;;;13.13;6.45;;;;;;;;;;5009951;28;20442;-68
2022/10/06 00:40:31;;;;;;;13.05;6.90;;;;;;;;;;5010272;28;20374;-68
2022/10/06 00:43:02;;;;;;;13.60;6.47;;;;;;;;;;5009107;28;20135;-69
2022/10/06 00:45:32;;;;;;;11.40;6.22;;;;;;;;;;4992486;28;20323;-68
2022/10/06 00:48:02;;;;;;;18.83;6.63;;;;;;;;;;4990992;28;20458;-68
2022/10/06 00:50:28;;;;;;;11.93;6.47;;;;;;;;;;4990908;28;20028;-68
2022/10/06 00:52:54;;;;;;;13.68;6.35;;;;;;;;;;4991185;28;20432;-67
2022/10/06 00:55:21;;;;;;;13.38;6.53;;;;;;;;;;5009394;28;20435;-68
2022/10/06 00:57:47;;;;;;;10.98;5.65;;;;;;;;;;5009346;28;20443;-68
2022/10/06 01:00:13;;;;;;;15.05;5.43;;;;;;;;;;4991195;28;20064;-68
2022/10/06 01:02:43;;;;;;;9.45;5.32;;;;;;;;;;5007435;28;20086;-68
2022/10/06 01:05:11;;;;;;;12.23;5.20;;;;;;;;;;5006904;28;20509;-68
2022/10/06 01:07:36;;;;;;;8.23;4.55;;;;;;;;;;4990538;28;20359;-68
2022/10/06 01:10:02;;;;;;;8.20;5.72;;;;;;;;;;5007220;28;20351;-68
2022/10/06 01:12:28;;;;;;;10.20;4.97;;;;;;;;;;5009057;28;20335;-68
2022/10/06 01:14:55;;;;;;;9.90;4.28;;;;;;;;;;5024948;28;20392;-67
2022/10/06 01:17:34;;;;;;;11.77;4.93;;;;;;;;;;5030797;28;20024;-67
2022/10/06 01:20:10;;;;;;;7.13;4.15;;;;;;;;;;5010099;28;20431;-68
2022/10/06 01:22:38;;;;;;;9.43;4.72;;;;;;;;;;5010695;28;20447;-68
2022/10/06 01:25:05;;;;;;;11.02;5.45;;;;;;;;;;5010146;28;20047;-68
2022/10/06 01:27:31;;;;;;;7.32;4.05;;;;;;;;;;5009921;28;20043;-68
2022/10/06 01:29:58;;;;;;;8.68;4.32;;;;;;;;;;5028419;28;20420;-68
2022/10/06 01:32:24;;;;;;;10.40;4.55;;;;;;;;;;5010056;28;20426;-68
2022/10/06 01:34:50;;;;;;;6.05;3.75;;;;;;;;;;5009983;28;20539;-68
2022/10/06 01:37:15;;;;;;;9.52;4.90;;;;;;;;;;5028110;28;20465;-67
2022/10/06 01:39:41;;;;;;;7.88;4.38;;;;;;;;;;5010198;28;20572;-67
2022/10/06 01:42:07;;;;;;;14.48;5.13;;;;;;;;;;5009737;28;20534;-68
2022/10/06 01:44:33;;;;;;;9.40;4.47;;;;;;;;;;5009292;28;20046;-68
2022/10/06 01:46:58;;;;;;;10.40;4.65;;;;;;;;;;5027813;28;20024;-68
2022/10/06 01:49:23;;;;;;;13.90;3.92;;;;;;;;;;5009804;28;20454;-68
2022/10/06 01:51:49;;;;;;;8.52;4.55;;;;;;;;;;5029107;28;20521;-67
2022/10/06 01:54:15;;;;;;;7.75;4.30;;;;;;;;;;5028484;28;20448;-67
2022/10/06 01:56:40;;;;;;;7.97;4.15;;;;;;;;;;4993074;28;20334;-68
2022/10/06 01:59:06;;;;;;;8.50;4.30;;;;;;;;;;5027707;28;20397;-68
2022/10/06 02:01:31;;;;;;;11.05;5.30;;;;;;;;;;5028040;28;20481;-68
2022/10/06 02:03:56;;;;;;;7.53;3.90;;;;;;;;;;5027847;28;20434;-67
2022/10/06 02:06:22;;;;;;;9.25;4.68;;;;;;;;;;5027699;28;20461;-67
2022/10/06 02:08:47;;;;;;;13.43;5.95;;;;;;;;;;5027561;28;20434;-68
2022/10/06 02:11:13;;;;;;;7.15;4.40;;;;;;;;;;5009218;28;20439;-68
2022/10/06 02:13:38;;;;;;;8.25;4.88;;;;;;;;;;5005605;28;20483;-68
2022/10/06 02:16:05;;;;;;;7.40;4.30;;;;;;;;;;5008533;28;20530;-68
2022/10/06 02:18:32;;;;;;;13.98;4.45;;;;;;;;;;5007487;28;20483;-68
2022/10/06 02:20:57;;;;;;;13.30;4.55;;;;;;;;;;5007389;28;20505;-67
2022/10/06 02:23:23;;;;;;;8.23;4.68;;;;;;;;;;5007499;28;20386;-68
2022/10/06 02:25:48;;;;;;;9.38;4.72;;;;;;;;;;5009601;28;20472;-67
2022/10/06 02:28:15;;;;;;;8.20;4.80;;;;;;;;;;5007446;28;20504;-67
2022/10/06 02:30:40;;;;;;;10.25;4.97;;;;;;;;;;5005517;28;20364;-68
2022/10/06 02:33:06;;;;;;;7.65;4.43;;;;;;;;;;5006323;28;20410;-68
2022/10/06 02:35:31;;;;;;;12.65;4.65;;;;;;;;;;5007350;28;20459;-67
2022/10/06 02:37:57;;;;;;;7.43;4.38;;;;;;;;;;5007198;28;20423;-68
2022/10/06 02:40:22;;;;;;;9.10;4.07;;;;;;;;;;5009468;28;20340;-68
2022/10/06 02:42:48;;;;;;;6.38;3.85;;;;;;;;;;5007178;28;20505;-67
2022/10/06 02:45:14;;;;;;;9.02;4.82;;;;;;;;;;5007134;28;20387;-67
2022/10/06 02:47:40;;;;;;;6.45;4.07;;;;;;;;;;5007154;28;20329;-67
2022/10/06 02:50:06;;;;;;;7.35;3.90;;;;;;;;;;5005642;28;20140;-68
2022/10/06 02:52:33;;;;;;;10.50;4.32;;;;;;;;;;5008053;28;20463;-67
2022/10/06 02:54:59;;;;;;;5.20;3.58;;;;;;;;;;5008475;28;20399;-67
2022/10/06 02:57:24;;;;;;;5.43;3.45;;;;;;;;;;5009789;28;20474;-67
2022/10/06 02:59:50;;;;;;;8.13;4.00;;;;;;;;;;5011257;28;20528;-68
2022/10/06 03:02:15;;;;;;;7.30;3.97;;;;;;;;;;5009881;28;20411;-67
2022/10/06 03:04:40;;;;;;;12.43;4.00;;;;;;;;;;5009596;28;20020;-68
2022/10/06 03:07:06;;;;;;;8.18;4.28;;;;;;;;;;5011021;28;20450;-68
2022/10/06 03:09:31;;;;;;;7.10;3.78;;;;;;;;;;5010913;28;20330;-67
2022/10/06 03:11:56;;;;;;;6.78;3.53;;;;;;;;;;5010842;28;20506;-67
2022/10/06 03:14:22;;;;;;;6.78;4.00;;;;;;;;;;5022228;28;20406;-67
2022/10/06 03:16:49;;;;;;;8.63;3.80;;;;;;;;;;5012770;28;20355;-68
2022/10/06 03:19:14;;;;;;;6.85;4.07;;;;;;;;;;5013380;28;20028;-67
2022/10/06 03:21:41;;;;;;;7.88;3.80;;;;;;;;;;5030791;28;20499;-67
2022/10/06 03:24:07;;;;;;;8.35;4.25;;;;;;;;;;5031747;28;20491;-68
2022/10/06 03:26:42;;;;;;;6.63;4.10;;;;;;;;;;5012677;28;20431;-67
2022/10/06 03:29:07;;;;;;;5.97;3.80;;;;;;;;;;5012213;28;20378;-68
2022/10/06 03:31:33;;;;;;;7.47;4.00;;;;;;;;;;5032488;28;20028;-67
2022/10/06 03:33:58;;;;;;;6.53;4.38;;;;;;;;;;5012149;28;20500;-67
2022/10/06 03:36:26;;;;;;;6.78;3.85;;;;;;;;;;5012122;28;20497;-67
2022/10/06 03:38:52;;;;;;;8.27;4.28;;;;;;;;;;5012323;28;20450;-67
2022/10/06 03:41:26;;;;;;;12.13;3.92;;;;;;;;;;5030914;28;20362;-67
2022/10/06 03:43:52;;;;;;;5.68;3.28;;;;;;;;;;5030107;28;20028;-67
2022/10/06 03:46:20;;;;;;;8.23;3.72;;;;;;;;;;5016152;28;20040;-67
2022/10/06 03:48:47;;;;;;;6.97;3.95;;;;;;;;;;5030590;28;20464;-67
2022/10/06 03:51:16;;;;;;;6.50;3.67;;;;;;;;;;5030109;28;20476;-67
2022/10/06 03:53:47;;;;;;;8.10;3.78;;;;;;;;;;5012025;28;20043;-68
2022/10/06 03:56:20;;;;;;;8.38;4.32;;;;;;;;;;5011937;28;20450;-67
2022/10/06 03:58:49;;;;;;;6.22;3.60;;;;;;;;;;5029905;28;20028;-67
2022/10/06 04:01:30;;;;;;;10.93;4.47;;;;;;;;;;5011467;28;20454;-67
2022/10/06 04:03:57;;;;;;;6.28;3.78;;;;;;;;;;5011957;28;20479;-67
2022/10/06 04:06:24;;;;;;;7.88;3.78;;;;;;;;;;5029730;28;20437;-67
2022/10/06 04:08:50;;;;;;;5.97;3.25;;;;;;;;;;5011680;28;20380;-67
2022/10/06 04:11:20;;;;;;;6.35;3.10;;;;;;;;;;5011855;28;20123;-67
2022/10/06 04:13:46;;;;;;;5.72;3.40;;;;;;;;;;5007783;28;20487;-68
2022/10/06 04:16:19;;;;;;;7.13;3.30;;;;;;;;;;5008068;28;20444;-67
2022/10/06 04:18:48;;;;;;;7.78;3.28;;;;;;;;;;5008282;28;20431;-67
2022/10/06 04:21:14;;;;;;;7.05;3.60;;;;;;;;;;5009841;28;20033;-67
2022/10/06 04:23:40;;;;;;;4.68;2.78;;;;;;;;;;5008040;28;20324;-67
2022/10/06 04:26:14;;;;;;;10.73;3.75;;;;;;;;;;5008265;28;20332;-68
2022/10/06 04:28:41;;;;;;;7.57;2.90;;;;;;;;;;5009570;28;20099;-67
2022/10/06 04:31:13;;;;;;;8.38;3.58;;;;;;;;;;5009392;28;20441;-67
2022/10/06 04:33:38;;;;;;;5.20;3.40;;;;;;;;;;5008875;28;20354;-67
2022/10/06 04:36:05;;;;;;;5.75;2.85;;;;;;;;;;5010323;28;20421;-67
2022/10/06 04:38:34;;;;;;;7.10;3.58;;;;;;;;;;5008218;28;20381;-67
2022/10/06 04:41:08;;;;;;;4.97;3.63;;;;;;;;;;5007669;28;20500;-67
2022/10/06 04:43:34;;;;;;;5.57;3.38;;;;;;;;;;5008739;28;20447;-67
2022/10/06 04:46:00;;;;;;;6.05;3.38;;;;;;;;;;5009334;28;20500;-67
2022/10/06 04:48:27;;;;;;;6.93;3.42;;;;;;;;;;5007804;28;20085;-67
2022/10/06 04:50:58;;;;;;;8.25;3.55;;;;;;;;;;5008223;28;20435;-67
2022/10/06 04:53:24;;;;;;;6.80;3.67;;;;;;;;;;5010728;28;20344;-67
2022/10/06 04:56:02;;;;;;;8.57;4.15;;;;;;;;;;5009061;28;20117;-67
2022/10/06 04:58:36;;;;;;;7.35;3.78;;;;;;;;;;5009091;28;20439;-67
2022/10/06 05:01:03;;;;;;;8.55;4.10;;;;;;;;;;5008764;28;20090;-67
2022/10/06 05:03:29;;;;;;;7.32;4.00;;;;;;;;;;5007425;28;20340;-67
2022/10/06 05:06:13;;;;;;;6.85;3.53;;;;;;;;;;5007347;28;20028;-67
2022/10/06 05:08:39;;;;;;;13.32;4.35;;;;;;;;;;5009012;28;20479;-67
2022/10/06 05:11:07;;;;;;;11.68;5.03;;;;;;;;;;5008106;28;20413;-67
2022/10/06 05:13:32;;;;;;;7.82;4.22;;;;;;;;;;5013576;28;20455;-67
2022/10/06 05:15:59;;;;;;;7.03;4.32;;;;;;;;;;5028601;28;20319;-67
2022/10/06 05:18:25;;;;;;;11.55;4.97;;;;;;;;;;5028618;28;20442;-67
2022/10/06 05:20:57;;;;;;;10.15;4.32;;;;;;;;;;5028929;28;20415;-67
2022/10/06 05:23:24;;;;;;;6.88;4.68;;;;;;;;;;5010344;28;20350;-67
2022/10/06 05:25:51;;;;;;;8.32;4.88;;;;;;;;;;5010411;28;20414;-67
2022/10/06 05:28:17;;;;;;;11.27;4.90;;;;;;;;;;5010577;28;20501;-68
2022/10/06 05:30:43;;;;;;;14.27;4.53;;;;;;;;;;4993768;28;20314;-67
2022/10/06 05:33:10;;;;;;;7.20;3.88;;;;;;;;;;5028161;28;20466;-67
2022/10/06 05:35:35;;;;;;;16.80;4.45;;;;;;;;;;5028169;28;20443;-67
2022/10/06 05:38:00;;;;;;;6.80;3.97;;;;;;;;;;5028046;28;20343;-67
2022/10/06 05:40:26;;;;;;;7.53;4.10;;;;;;;;;;5028753;28;20442;-67
2022/10/06 05:42:54;;;;;;;8.48;3.60;;;;;;;;;;5028082;28;20328;-68
2022/10/06 05:45:19;;;;;;;7.40;4.10;;;;;;;;;;5010628;28;20427;-68
2022/10/06 05:47:44;;;;;;;8.98;4.40;;;;;;;;;;5009842;28;20492;-67
2022/10/06 05:50:10;;;;;;;6.40;3.97;;;;;;;;;;5027914;28;20568;-67
2022/10/06 05:52:35;;;;;;;11.27;4.85;;;;;;;;;;5028376;28;20514;-67
2022/10/06 05:55:00;;;;;;;14.57;4.72;;;;;;;;;;5028100;28;20439;-67
2022/10/06 05:57:27;;;;;;;9.20;4.60;;;;;;;;;;5029201;28;20433;-67
2022/10/06 05:59:52;;;;;;;12.38;4.00;;;;;;;;;;5027804;28;20495;-67
2022/10/06 06:02:17;;;;;;;8.98;5.03;;;;;;;;;;5027638;28;20345;-67
2022/10/06 06:04:43;;;;;;;9.55;4.68;;;;;;;;;;5028766;28;20370;-67
2022/10/06 06:07:08;;;;;;;14.90;5.05;;;;;;;;;;5027634;28;20443;-67
2022/10/06 06:09:33;;;;;;;9.45;4.35;;;;;;;;;;5027553;28;20344;-67
2022/10/06 06:11:59;;;;;;;8.93;5.00;;;;;;;;;;5027659;28;20463;-67
2022/10/06 06:17:08;;;;;;;5.20;2.85;;;;;;;;;;5027420;28;20516;-67
2022/10/06 06:19:33;;;;;;;5.80;3.25;;;;;;;;;;5029736;28;20431;-67
2022/10/06 06:21:58;;;;;;;5.53;2.88;;;;;;;;;;5028523;28;20484;-67
2022/10/06 06:24:24;;;;;;;8.60;3.10;;;;;;;;;;5027520;28;20438;-67
2022/10/06 06:26:49;;;;;;;13.10;3.58;;;;;;;;;;5027278;28;20525;-67
2022/10/06 06:29:14;;;;;;;4.82;2.95;;;;;;;;;;5027419;28;20451;-67
2022/10/06 06:31:42;;;;;;;5.43;2.97;;;;;;;;;;5027337;28;20506;-67
2022/10/06 06:34:07;;;;;;;5.15;3.22;;;;;;;;;;5027315;28;20478;-67
2022/10/06 06:36:40;;;;;;;6.15;3.47;;;;;;;;;;5027142;28;20426;-67
2022/10/06 06:39:08;;;;;;;15.90;3.42;;;;;;;;;;5029504;28;20326;-67
2022/10/06 06:41:36;;;;;;;6.72;3.03;;;;;;;;;;5027123;28;20343;-67
2022/10/06 06:44:02;;;;;;;6.47;3.22;;;;;;;;;;5009026;28;20412;-67
2022/10/06 06:46:30;;;;;;;8.30;3.92;;;;;;;;;;5008963;28;20051;-67
2022/10/06 06:49:00;;;;;;;5.13;3.10;;;;;;;;;;5027061;28;20347;-67
2022/10/06 06:51:26;;;;;;;5.97;3.00;;;;;;;;;;5027050;28;20421;-67
2022/10/06 06:53:52;;;;;;;9.98;2.63;;;;;;;;;;5008951;28;20347;-67
2022/10/06 06:56:20;;;;;;;3.42;2.33;;;;;;;;;;5008798;28;20444;-67
2022/10/06 06:58:46;;;;;;;6.50;2.60;;;;;;;;;;5026933;28;20366;-67
2022/10/06 07:01:13;;;;;;;6.18;2.97;;;;;;;;;;5027080;28;20324;-67
2022/10/06 07:03:42;;;;;;;4.82;2.88;;;;;;;;;;5027318;28;20095;-67
2022/10/06 07:06:09;;;;;;;4.82;3.08;;;;;;;;;;5009438;28;20473;-67
2022/10/06 07:08:41;;;;;;;7.85;3.58;;;;;;;;;;5028734;28;20304;-67
2022/10/06 07:11:29;;;;;;;4.95;2.70;;;;;;;;;;5028642;28;20324;-67
2022/10/06 07:14:00;;;;;;;7.20;3.40;;;;;;;;;;5005483;28;20490;-67
2022/10/06 07:27:27;;;;;;;7.60;2.92;;;;;;;;;;5006805;28;20493;-67
2022/10/06 07:29:53;;;;;;;6.30;2.85;;;;;;;;;;5006694;28;20436;-67
2022/10/06 07:32:29;;;;;;;3.95;2.22;;;;;;;;;;5008316;28;20431;-66
2022/10/06 07:34:56;;;;;;;6.78;3.03;;;;;;;;;;5008828;28;20032;-66
2022/10/06 07:37:22;;;;;;;4.35;2.35;;;;;;;;;;5005163;28;20025;-66
2022/10/06 07:39:48;;;;;;;6.97;3.20;;;;;;;;;;5006945;28;20449;-66
2022/10/06 07:42:15;;;;;;;5.07;2.70;;;;;;;;;;5006652;28;20344;-66
2022/10/06 07:44:43;;;;;;;8.48;3.25;;;;;;;;;;5009256;28;20507;-66
2022/10/06 07:47:09;;;;;;;9.48;3.15;;;;;;;;;;5010260;28;20413;-66
2022/10/06 07:49:34;;;;;;;5.72;2.60;;;;;;;;;;5010150;28;20352;-66
2022/10/06 07:52:01;;;;;;;5.55;2.80;;;;;;;;;;5010211;28;20025;-66
2022/10/06 07:54:27;;;;;;;3.55;2.42;;;;;;;;;;5010008;28;20397;-66
2022/10/06 07:56:53;;;;;;;5.47;2.60;;;;;;;;;;5008748;28;20321;-66
2022/10/06 07:59:19;;;;;;;3.80;2.33;;;;;;;;;;5010596;28;20413;-66
2022/10/06 08:01:44;;;;;;;4.32;2.28;;;;;;;;;;5010828;28;20386;-66
2022/10/06 08:04:10;;;;;;;3.08;2.22;;;;;;;;;;5009993;28;20506;-66
2022/10/06 08:06:37;;;;;;;4.28;2.42;;;;;;;;;;5009163;28;20028;-66
2022/10/06 08:09:03;;;;;;;6.53;2.67;;;;;;;;;;5009885;28;20436;-66
2022/10/06 08:11:28;;;;;;;4.57;2.47;;;;;;;;;;5011266;28;20033;-67
2022/10/06 08:13:54;;;;;;;5.13;2.72;;;;;;;;;;5008024;28;20533;-66
2022/10/06 08:16:21;;;;;;;5.07;2.50;;;;;;;;;;5010615;28;20377;-66
2022/10/06 08:18:52;;;;;;;4.32;2.22;;;;;;;;;;5010150;28;20394;-66
2022/10/06 08:21:25;;;;;;;3.53;2.35;;;;;;;;;;5009605;28;20425;-66
2022/10/06 08:23:52;;;;;;;3.63;2.20;;;;;;;;;;5008063;28;20505;-66
2022/10/06 08:26:19;;;;;;;3.75;2.00;;;;;;;;;;5009613;28;20510;-66
2022/10/06 08:28:46;;;;;;;3.30;2.15;;;;;;;;;;5007974;28;20344;-66
2022/10/06 08:31:14;;;;;;;4.15;2.50;;;;;;;;;;5008167;28;20435;-66
2022/10/06 08:33:41;;;;;;;4.40;2.20;;;;;;;;;;5008133;28;20462;-66
2022/10/06 08:36:09;;;;;;;4.43;2.38;;;;;;;;;;5009404;28;20470;-66
2022/10/06 08:38:36;;;;;;;6.00;2.85;;;;;;;;;;5009331;28;20033;-66
2022/10/06 08:41:03;;;;;;;3.97;2.08;;;;;;;;;;5009442;28;20467;-67
2022/10/06 08:43:29;;;;;;;5.18;2.38;;;;;;;;;;5009724;28;20460;-66
2022/10/06 08:46:00;;;;;;;2.95;1.95;;;;;;;;;;5007783;28;20390;-67
2022/10/06 08:48:29;;;;;;;3.80;2.35;;;;;;;;;;5008182;28;20497;-66
2022/10/06 08:51:03;;;;;;;3.72;2.00;;;;;;;;;;5009672;28;20343;-67
2022/10/06 08:53:49;;;;;;;3.15;2.00;;;;;;;;;;5009206;28;20416;-67
2022/10/06 08:56:26;;;;;;;5.05;2.03;;;;;;;;;;5009170;28;20467;-66
2022/10/06 08:58:53;;;;;;;4.15;2.20;;;;;;;;;;5008973;28;20387;-66
2022/10/06 09:01:24;;;;;;;3.22;2.10;;;;;;;;;;5007151;28;20367;-66
2022/10/06 09:03:52;;;;;;;4.82;2.08;;;;;;;;;;5008736;28;20043;-66
2022/10/06 09:07:03;;;;;;;5.32;2.40;;;;;;;;;;5008816;28;20025;-66
2022/10/06 09:09:38;;;;;;;4.72;2.00;;;;;;;;;;4954449;28;20363;-66
2022/10/06 09:12:41;;;;;;;3.58;2.10;;;;;;;;;;5008620;28;20105;-66
2022/10/06 09:15:11;;;;;;;4.88;2.10;;;;;;;;;;5024683;28;20325;-66
2022/10/06 09:17:48;;;;;;;3.88;2.10;;;;;;;;;;5030481;28;20445;-66
2022/10/06 09:20:25;;;;;;;3.58;1.90;;;;;;;;;;5030195;28;20446;-66
2022/10/06 09:22:53;;;;;;;2.67;1.85;;;;;;;;;;5010503;28;20450;-66
2022/10/06 09:25:21;;;;;;;4.90;1.98;;;;;;;;;;5028387;28;20576;-66
2022/10/06 09:27:58;;;;;;;3.00;1.77;;;;;;;;;;5028230;28;20028;-66
2022/10/06 09:30:24;;;;;;;5.53;2.08;;;;;;;;;;5028393;28;20485;-66
2022/10/06 09:32:56;;;;;;;4.18;2.13;;;;;;;;;;5010051;28;20343;-66
2022/10/06 09:35:23;;;;;;;4.32;2.25;;;;;;;;;;5010713;28;20346;-66
2022/10/06 09:38:03;;;;;;;3.15;2.33;;;;;;;;;;5010667;28;20409;-66
2022/10/06 09:40:48;;;;;;;4.43;2.28;;;;;;;;;;5011383;28;20020;-66
2022/10/06 09:43:26;;;;;;;4.07;2.10;;;;;;;;;;5028028;28;20454;-66
2022/10/06 09:45:53;;;;;;;4.80;2.15;;;;;;;;;;5028205;28;20083;-66
2022/10/06 09:48:25;;;;;;;3.17;2.25;;;;;;;;;;5027967;28;20031;-66
2022/10/06 09:51:07;;;;;;;9.65;2.55;;;;;;;;;;5028632;28;20316;-66
2022/10/06 09:53:33;;;;;;;4.40;2.00;;;;;;;;;;5027964;28;20421;-66
2022/10/06 09:56:01;;;;;;;4.38;2.42;;;;;;;;;;5029010;28;20308;-66
2022/10/06 09:58:30;;;;;;;3.30;1.98;;;;;;;;;;5027695;28;20343;-66
2022/10/06 10:00:58;;;;;;;5.18;2.45;;;;;;;;;;5027812;28;20043;-66
2022/10/06 10:03:25;;;;;;;3.47;1.83;;;;;;;;;;5009510;28;20424;-66
2022/10/06 10:05:53;;;;;;;8.48;2.22;;;;;;;;;;5026919;28;20439;-66
2022/10/06 10:08:29;;;;;;;3.60;2.25;;;;;;;;;;5009634;28;20427;-66
2022/10/06 10:11:06;;;;;;;3.92;2.38;;;;;;;;;;5027668;28;20459;-66
2022/10/06 10:13:41;;;;;;;4.65;2.08;;;;;;;;;;5027391;28;20052;-66
2022/10/06 10:16:07;;;;;;;4.00;1.75;;;;;;;;;;5028057;28;20105;-66
2022/10/06 10:18:32;;;;;;;2.78;1.83;;;;;;;;;;5009638;28;20028;-66
2022/10/06 10:21:07;;;;;;;3.58;1.95;;;;;;;;;;5027416;28;20327;-66
2022/10/06 10:23:35;;;;;;;5.57;2.22;;;;;;;;;;5027385;28;20066;-66
2022/10/06 10:26:00;;;;;;;3.08;1.90;;;;;;;;;;5009263;28;20027;-66
2022/10/06 10:28:50;;;;;;;6.80;1.95;;;;;;;;;;5028507;28;20032;-66
2022/10/06 10:31:50;;;;;;;6.82;2.10;;;;;;;;;;5009496;28;20446;-65
2022/10/06 10:34:15;;;;;;;4.80;2.00;;;;;;;;;;5027251;28;20347;-66
2022/10/06 10:37:03;;;;;;;2.60;1.67;;;;;;;;;;5027657;28;20289;-66
2022/10/06 10:39:41;;;;;;;3.22;1.80;;;;;;;;;;5009765;28;20344;-66
2022/10/06 10:42:18;;;;;;;3.67;1.88;;;;;;;;;;5027216;28;20459;-66
2022/10/06 10:44:54;;;;;;;3.88;1.90;;;;;;;;;;5009553;28;20435;-66
2022/10/06 10:47:49;;;;;;;5.43;1.90;;;;;;;;;;5027901;28;20427;-66
2022/10/06 10:50:26;;;;;;;4.45;2.03;;;;;;;;;;5009691;28;20033;-66
2022/10/06 10:53:00;;;;;;;3.38;2.10;;;;;;;;;;5027074;28;20378;-66
2022/10/06 10:55:30;;;;;;;2.80;1.80;;;;;;;;;;5027475;28;20366;-66
2022/10/06 10:57:58;;;;;;;4.63;2.05;;;;;;;;;;5010047;28;20427;-66
2022/10/06 11:00:27;;;;;;;2.97;2.25;;;;;;;;;;5027459;28;20457;-66
2022/10/06 11:02:55;;;;;;;5.22;2.10;;;;;;;;;;5009233;28;20465;-66
2022/10/06 11:05:59;;;;;;;2.88;1.90;;;;;;;;;;5009158;28;20055;-66
2022/10/06 11:08:33;;;;;;;3.70;2.00;;;;;;;;;;5027153;28;20096;-66
2022/10/06 11:11:01;;;;;;;3.22;1.67;;;;;;;;;;5026783;28;20435;-66
2022/10/06 11:13:41;;;;;;;3.57;1.73;;;;;;;;;;5026780;28;20048;-66
2022/10/06 11:16:13;;;;;;;3.15;1.77;;;;;;;;;;5027276;28;20482;-66
2022/10/06 11:18:40;;;;;;;3.67;1.80;;;;;;;;;;5029950;28;20462;-66
2022/10/06 11:21:25;;;;;;;3.00;1.98;;;;;;;;;;5014209;28;20401;-66
2022/10/06 11:23:56;;;;;;;3.60;2.00;;;;;;;;;;5012693;28;20032;-66
2022/10/06 11:26:28;;;;;;;2.13;1.70;;;;;;;;;;5012534;28;20088;-66
2022/10/06 11:29:15;;;;;;;4.07;1.83;;;;;;;;;;5012401;28;20371;-66
2022/10/06 11:31:49;;;;;;;3.22;1.80;;;;;;;;;;5012631;28;20427;-66
2022/10/06 11:34:14;;;;;;;3.25;1.92;;;;;;;;;;5030721;28;20350;-66
2022/10/06 11:36:55;;;;;;;11.23;1.70;;;;;;;;;;5012043;28;20339;-67
2022/10/06 11:39:47;;;;;;;3.80;2.08;;;;;;;;;;5012121;28;20024;-66
2022/10/06 11:42:39;;;;;;;3.58;2.15;;;;;;;;;;5011963;28;20399;-66
2022/10/06 11:45:12;;;;;;;2.92;1.50;;;;;;;;;;5030874;28;20542;-66
2022/10/06 11:47:58;;;;;;;4.57;1.60;;;;;;;;;;5030242;28;20489;-66
2022/10/06 11:50:35;;;;;;;2.33;1.60;;;;;;;;;;5030412;28;20388;-66
2022/10/06 11:53:01;;;;;;;3.40;2.20;;;;;;;;;;5030041;28;20375;-66
2022/10/06 11:55:27;;;;;;;3.80;1.88;;;;;;;;;;5032328;28;20415;-66
2022/10/06 11:58:11;;;;;;;2.42;1.60;;;;;;;;;;5031249;28;20085;-66
2022/10/06 12:00:36;;;;;;;2.75;1.60;;;;;;;;;;5012020;28;20024;-66
2022/10/06 12:03:32;;;;;;;2.88;1.60;;;;;;;;;;5030067;28;20043;-66
2022/10/06 12:05:58;;;;;;;4.78;2.08;;;;;;;;;;5031910;28;20431;-66
2022/10/06 12:08:37;;;;;;;4.38;1.80;;;;;;;;;;5030074;28;20466;-66
2022/10/06 12:11:44;;;;;;;4.68;1.58;;;;;;;;;;5011444;28;20340;-66
2022/10/06 12:14:39;;;;;;;1.90;1.48;;;;;;;;;;5029522;28;20474;-66
2022/10/06 12:17:10;;;;;;;1.85;1.33;;;;;;;;;;5029707;28;20431;-66
2022/10/06 12:19:44;;;;;;;2.45;1.42;;;;;;;;;;5029790;28;20370;-66
2022/10/06 12:22:29;;;;;;;3.88;1.80;;;;;;;;;;5030725;28;20308;-66
2022/10/06 12:25:10;;;;;;;4.38;1.63;;;;;;;;;;5023247;28;20463;-66
2022/10/06 12:28:01;;;;;;;3.97;1.77;;;;;;;;;;5029547;28;20381;-66
2022/10/06 12:30:43;;;;;;;2.55;1.30;;;;;;;;;;5028808;28;20435;-66
2022/10/06 12:33:16;;;;;;;4.53;2.35;;;;;;;;;;5011396;28;20509;-66
2022/10/06 12:35:42;;;;;;;2.22;1.60;;;;;;;;;;5011237;28;20557;-66
2022/10/06 12:38:29;;;;;;;5.78;1.70;;;;;;;;;;5030140;28;20296;-66
2022/10/06 12:40:55;;;;;;;3.80;1.38;;;;;;;;;;5030845;28;20054;-66
2022/10/06 12:43:31;;;;;;;2.88;1.40;;;;;;;;;;5011981;28;20426;-66
2022/10/06 12:46:23;;;;;;;3.53;1.75;;;;;;;;;;5029572;28;20040;-66
2022/10/06 12:49:20;;;;;;;2.13;1.52;;;;;;;;;;5028216;28;20498;-66
2022/10/06 12:51:46;;;;;;;2.67;1.83;;;;;;;;;;5029126;28;20420;-66
2022/10/06 12:54:23;;;;;;;2.35;1.38;;;;;;;;;;5029141;28;20082;-66
2022/10/06 12:57:00;;;;;;;3.00;1.58;;;;;;;;;;5010699;28;20044;-66
2022/10/06 12:59:31;;;;;;;7.20;2.20;;;;;;;;;;5030171;28;20494;-66
2022/10/06 13:01:59;;;;;;;2.40;1.40;;;;;;;;;;5030486;28;20343;-66
2022/10/06 13:04:39;;;;;;;2.53;1.70;;;;;;;;;;5011624;28;20446;-66
2022/10/06 13:07:25;;;;;;;2.70;1.52;;;;;;;;;;5028694;28;21090;-66
2022/10/06 13:09:53;;;;;;;4.40;1.30;;;;;;;;;;5028615;28;20380;-66
2022/10/06 13:12:23;;;;;;;4.28;1.67;;;;;;;;;;5010447;28;20292;-66
2022/10/06 13:15:22;;;;;;;3.85;1.80;;;;;;;;;;5028618;28;20470;-66
2022/10/06 13:17:49;;;;;;;1.92;1.35;;;;;;;;;;5003768;28;20098;-66
2022/10/06 13:20:24;;;;;;;2.78;1.42;;;;;;;;;;5010377;28;20485;-66
2022/10/06 13:22:58;;;;;;;2.40;1.67;;;;;;;;;;5029464;28;20500;-66
2022/10/06 13:25:31;;;;;;;3.53;1.38;;;;;;;;;;5010358;28;20435;-66
2022/10/06 13:27:57;;;;;;;2.22;1.25;;;;;;;;;;5028543;28;20502;-66
2022/10/06 13:30:22;;;;;;;3.08;1.70;;;;;;;;;;5010026;28;20361;-66
2022/10/06 13:32:52;;;;;;;2.42;1.15;;;;;;;;;;5028381;28;20032;-66
2022/10/06 13:35:21;;;;;;;4.78;1.42;;;;;;;;;;5010198;28;20028;-67
2022/10/06 13:37:46;;;;;;;1.25;1.05;;;;;;;;;;5029310;28;20407;-66
2022/10/06 13:40:15;;;;;;;3.22;1.48;;;;;;;;;;5009774;28;20399;-66
2022/10/06 13:42:44;;;;;;;1.95;1.17;;;;;;;;;;5028172;28;20092;-66
2022/10/06 13:45:13;;;;;;;2.33;1.50;;;;;;;;;;5009966;28;20050;-66
2022/10/06 13:47:39;;;;;;;2.55;1.40;;;;;;;;;;5028044;28;20024;-66
2022/10/06 13:50:06;;;;;;;3.30;1.60;;;;;;;;;;5027929;28;20061;-66
2022/10/06 13:52:34;;;;;;;2.63;1.20;;;;;;;;;;5027956;28;20028;-66
2022/10/06 13:55:00;;;;;;;3.47;1.42;;;;;;;;;;5009691;28;20343;-66
2022/10/06 13:57:45;;;;;;;2.05;1.50;;;;;;;;;;5009760;28;20422;-66
2022/10/06 14:00:18;;;;;;;2.33;1.50;;;;;;;;;;5027693;28;20362;-66
2022/10/06 14:02:48;;;;;;;2.08;1.17;;;;;;;;;;5010051;28;20374;-66
2022/10/06 14:05:25;;;;;;;14.35;1.48;;;;;;;;;;5027855;28;20391;-66
2022/10/06 14:07:53;;;;;;;3.03;1.52;;;;;;;;;;5009707;28;20347;-66
2022/10/06 14:10:29;;;;;;;3.40;1.50;;;;;;;;;;5009679;28;20576;-66
2022/10/06 14:12:57;;;;;;;2.45;1.50;;;;;;;;;;5027476;28;20043;-66
2022/10/06 14:15:25;;;;;;;2.33;1.55;;;;;;;;;;5027093;28;20064;-66
2022/10/06 14:17:59;;;;;;;1.65;1.27;;;;;;;;;;5010186;28;20338;-66
2022/10/06 14:20:44;;;;;;;3.10;1.70;;;;;;;;;;5027520;28;20512;-66
2022/10/06 14:23:42;;;;;;;1.92;1.08;;;;;;;;;;5027787;28;20334;-66
2022/10/06 14:26:12;;;;;;;1.52;1.15;;;;;;;;;;5029176;28;20482;-66
2022/10/06 14:28:39;;;;;;;2.60;1.40;;;;;;;;;;5028342;28;20089;-66
2022/10/06 14:31:05;;;;;;;4.18;1.65;;;;;;;;;;5027199;28;20368;-66
2022/10/06 14:33:31;;;;;;;2.30;1.58;;;;;;;;;;5009178;28;20075;-66
2022/10/06 14:35:56;;;;;;;3.22;1.45;;;;;;;;;;5027422;28;20020;-66
2022/10/06 14:38:23;;;;;;;3.35;1.50;;;;;;;;;;5027608;28;20390;-66
2022/10/06 14:40:48;;;;;;;2.03;1.40;;;;;;;;;;5027462;28;20450;-66
2022/10/06 14:43:15;;;;;;;2.25;1.17;;;;;;;;;;5029134;28;20423;-66
2022/10/06 14:45:42;;;;;;;3.90;1.40;;;;;;;;;;5026980;28;20067;-66
2022/10/06 14:48:07;;;;;;;1.95;1.17;;;;;;;;;;5009260;28;20496;-66
2022/10/06 14:50:33;;;;;;;2.95;1.30;;;;;;;;;;5027109;28;20462;-66
2022/10/06 14:52:59;;;;;;;2.75;1.48;;;;;;;;;;5030733;28;20457;-66
2022/10/06 14:55:27;;;;;;;1.67;1.33;;;;;;;;;;5033860;28;20439;-66
2022/10/06 14:57:53;;;;;;;2.33;1.33;;;;;;;;;;5033918;28;20381;-66
2022/10/06 15:00:19;;;;;;;1.55;1.33;;;;;;;;;;5034127;28;20343;-66
2022/10/06 15:02:44;;;;;;;2.05;1.30;;;;;;;;;;5034076;28;20319;-66
2022/10/06 15:05:10;;;;;;;2.60;1.33;;;;;;;;;;5033680;28;20342;-66
2022/10/06 15:10:19;;;;;;;5.70;1.48;;;;;;;;;;5033781;28;20461;-66
2022/10/06 15:12:45;;;;;;;2.22;1.30;;;;;;;;;;5034498;28;20427;-66
2022/10/06 15:15:10;;;;;;;2.47;1.58;;;;;;;;;;5033127;28;20358;-66